Time;durP1;ratioP1;P1;durP2;ratioP2;P2;SDS_P1;SDS_P2;PMS_P1;PMS_P2;Temp;Humidity;BMP_temperature;BMP_pressure;BME280_temperature;BME280_humidity;BME280_pressure;Samples;Min_cycle;Max_cycle;Signal;HPM_P1;HPM_P2
2022/01/04 00:00:59;;;;;;;2.38;1.02;;;24.00;40.00;;;;;;5003339;28;20034;-46
2022/01/04 00:03:24;;;;;;;2.47;0.98;;;24.00;40.00;;;;;;5003591;28;20033;-46
2022/01/04 00:05:50;;;;;;;1.63;0.80;;;24.00;40.00;;;;;;5003719;28;20034;-45
2022/01/04 00:08:16;;;;;;;1.90;0.88;;;24.00;40.00;;;;;;5003542;28;20061;-45
2022/01/04 00:10:42;;;;;;;2.92;1.20;;;23.90;40.10;;;;;;5003309;28;20125;-46
2022/01/04 00:13:23;;;;;;;2.70;0.88;;;23.90;40.10;;;;;;5002959;28;20629;-46
2022/01/04 00:15:54;;;;;;;2.10;0.98;;;23.90;40.00;;;;;;5004082;28;20045;-46
2022/01/04 00:18:20;;;;;;;1.65;0.73;;;24.00;40.00;;;;;;5003965;28;20084;-45
2022/01/04 00:20:47;;;;;;;1.35;0.75;;;23.90;40.00;;;;;;5003603;28;20034;-46
2022/01/04 00:23:14;;;;;;;2.05;0.90;;;23.90;40.00;;;;;;5003299;28;20066;-45
2022/01/04 00:25:40;;;;;;;1.67;0.80;;;23.90;40.00;;;;;;5019031;28;20097;-46
2022/01/04 00:28:07;;;;;;;2.40;1.05;;;23.90;40.00;;;;;;5005657;28;20045;-46
2022/01/04 00:30:38;;;;;;;2.05;0.82;;;23.90;40.00;;;;;;5004002;28;20034;-46
2022/01/04 00:33:05;;;;;;;1.98;0.90;;;23.90;40.00;;;;;;5002969;28;20026;-46
2022/01/04 00:35:30;;;;;;;1.95;0.93;;;23.90;40.00;;;;;;5004139;28;20045;-45
2022/01/04 00:37:57;;;;;;;2.17;0.80;;;23.90;40.00;;;;;;5006166;28;20029;-46
2022/01/04 00:40:24;;;;;;;1.95;0.90;;;23.90;40.00;;;;;;5007509;28;20025;-46
2022/01/04 00:42:50;;;;;;;2.00;0.90;;;23.90;40.00;;;;;;5006000;28;20109;-46
2022/01/04 00:45:16;;;;;;;1.98;0.90;;;23.80;39.90;;;;;;5007645;28;20084;-46
2022/01/04 00:50:29;;;;;;;3.45;1.30;;;23.80;39.90;;;;;;5033586;28;20039;-46
2022/01/04 00:52:56;;;;;;;1.65;0.70;;;23.80;39.90;;;;;;5044369;28;20028;-46
2022/01/04 00:55:22;;;;;;;1.48;0.68;;;23.80;39.90;;;;;;5046504;28;20025;-45
2022/01/04 00:57:48;;;;;;;1.92;0.80;;;23.80;40.00;;;;;;5016338;28;20018;-46
2022/01/04 01:00:15;;;;;;;2.00;0.80;;;23.80;40.00;;;;;;5006632;28;20109;-46
2022/01/04 01:02:42;;;;;;;2.28;0.80;;;23.80;40.00;;;;;;5005813;28;20721;-46
2022/01/04 01:05:09;;;;;;;1.80;0.80;;;23.80;39.90;;;;;;5005302;28;20473;-46
2022/01/04 01:07:35;;;;;;;1.90;0.80;;;23.80;39.90;;;;;;5005555;28;20026;-46
2022/01/04 01:12:31;;;;;;;2.45;0.90;;;23.80;40.00;;;;;;5006256;28;20022;-46
2022/01/04 01:14:57;;;;;;;1.95;0.80;;;23.80;40.00;;;;;;5006755;28;20084;-46
2022/01/04 01:17:22;;;;;;;1.98;0.80;;;23.80;40.00;;;;;;5006534;28;20037;-46
2022/01/04 01:19:48;;;;;;;1.63;0.77;;;23.80;40.00;;;;;;5005280;28;20018;-46
2022/01/04 01:22:14;;;;;;;2.67;0.70;;;23.80;40.00;;;;;;5005853;28;20597;-45
2022/01/04 01:24:39;;;;;;;2.42;0.98;;;23.80;40.00;;;;;;5005167;28;20038;-46
2022/01/04 01:27:05;;;;;;;1.90;0.88;;;23.70;40.00;;;;;;5016222;28;20372;-45
2022/01/04 01:29:31;;;;;;;2.10;0.80;;;23.70;40.00;;;;;;5006299;28;20095;-45
2022/01/04 01:31:57;;;;;;;2.47;0.90;;;23.70;40.00;;;;;;5006333;28;20725;-46
2022/01/04 01:34:23;;;;;;;1.85;0.82;;;23.70;40.00;;;;;;5005837;28;20466;-45
2022/01/04 01:36:49;;;;;;;1.10;0.68;;;23.70;40.00;;;;;;5006180;28;20104;-45
2022/01/04 01:39:16;;;;;;;2.22;1.00;;;23.70;40.00;;;;;;5006230;28;20109;-46
2022/01/04 01:41:42;;;;;;;1.42;0.80;;;23.70;40.00;;;;;;5006372;28;20029;-46
2022/01/04 01:44:07;;;;;;;1.63;0.60;;;23.70;40.00;;;;;;5005412;28;20021;-46
2022/01/04 01:46:33;;;;;;;1.48;0.65;;;23.70;40.00;;;;;;5005222;28;20514;-46
2022/01/04 01:48:59;;;;;;;1.92;0.70;;;23.70;40.00;;;;;;5019589;28;20061;-46
2022/01/04 01:51:30;;;;;;;3.15;0.90;;;23.70;40.00;;;;;;5039292;28;20036;-46
2022/01/04 01:53:56;;;;;;;1.50;0.63;;;23.70;40.00;;;;;;5045252;28;20426;-45
2022/01/04 01:56:22;;;;;;;1.38;0.60;;;23.60;39.90;;;;;;5040399;28;20028;-46
2022/01/04 01:58:48;;;;;;;1.50;0.70;;;23.60;39.90;;;;;;5005900;28;20064;-45
2022/01/04 02:01:14;;;;;;;1.70;0.75;;;23.70;40.00;;;;;;5006288;28;20415;-46
2022/01/04 02:03:40;;;;;;;1.85;0.70;;;23.60;39.90;;;;;;5004270;28;20021;-46
2022/01/04 02:06:06;;;;;;;1.33;0.55;;;23.60;39.90;;;;;;5006123;28;20041;-46
2022/01/04 02:08:32;;;;;;;1.17;0.50;;;23.70;40.00;;;;;;5005576;28;20034;-46
2022/01/04 02:10:58;;;;;;;1.58;0.60;;;23.70;40.00;;;;;;5004608;28;20030;-46
2022/01/04 02:13:25;;;;;;;1.75;0.88;;;23.60;39.90;;;;;;5005420;28;20088;-46
2022/01/04 02:15:52;;;;;;;1.73;0.73;;;23.70;40.00;;;;;;5005778;28;20026;-46
2022/01/04 02:18:17;;;;;;;1.48;0.60;;;23.60;39.90;;;;;;5005861;28;20054;-46
2022/01/04 02:20:43;;;;;;;1.88;0.80;;;23.60;39.90;;;;;;5005241;28;20450;-46
2022/01/04 02:23:09;;;;;;;1.63;0.82;;;23.70;39.90;;;;;;5005550;28;20026;-46
2022/01/04 02:25:35;;;;;;;1.40;0.57;;;23.60;39.90;;;;;;5004855;28;20041;-46
2022/01/04 02:28:01;;;;;;;1.35;0.60;;;23.70;40.00;;;;;;5009840;28;20051;-46
2022/01/04 02:30:27;;;;;;;1.30;0.70;;;23.60;39.80;;;;;;5014909;28;20030;-45
2022/01/04 02:32:53;;;;;;;1.42;0.60;;;23.60;39.80;;;;;;5022695;28;20104;-46
2022/01/04 02:35:28;;;;;;;1.17;0.55;;;23.60;39.80;;;;;;5012119;28;20022;-46
2022/01/04 02:37:58;;;;;;;1.63;0.73;;;23.60;39.80;;;;;;5024759;28;20018;-46
2022/01/04 02:40:26;;;;;;;1.48;0.63;;;23.60;39.80;;;;;;5025756;28;20084;-47
2022/01/04 02:42:53;;;;;;;1.10;0.50;;;23.60;39.80;;;;;;5012178;28;20109;-46
2022/01/04 02:45:20;;;;;;;1.75;0.70;;;23.60;39.80;;;;;;5024427;28;20025;-46
2022/01/04 02:47:46;;;;;;;1.20;0.50;;;23.60;39.80;;;;;;5024322;28;20490;-45
2022/01/04 02:50:12;;;;;;;1.15;0.47;;;23.60;39.80;;;;;;5032192;28;20040;-45
2022/01/04 02:52:38;;;;;;;1.02;0.50;;;23.60;39.80;;;;;;5044781;28;20441;-46
2022/01/04 02:55:11;;;;;;;1.23;0.57;;;23.60;39.80;;;;;;5032513;28;20163;-46
2022/01/04 02:57:38;;;;;;;1.55;0.80;;;23.60;39.80;;;;;;5024113;28;20025;-46
2022/01/04 03:00:07;;;;;;;1.50;0.57;;;23.60;39.80;;;;;;5023069;28;20057;-46
2022/01/04 03:02:33;;;;;;;1.33;0.52;;;23.60;39.80;;;;;;5023891;28;20594;-46
2022/01/04 03:04:59;;;;;;;1.10;0.60;;;23.60;39.80;;;;;;5014898;28;20498;-46
2022/01/04 03:07:25;;;;;;;1.13;0.55;;;23.60;39.80;;;;;;5012627;28;20116;-46
2022/01/04 03:09:50;;;;;;;1.15;0.57;;;23.60;39.80;;;;;;5018202;28;20117;-46
2022/01/04 03:12:16;;;;;;;1.27;0.70;;;23.60;39.80;;;;;;5019563;28;20033;-46
2022/01/04 03:14:42;;;;;;;1.20;0.43;;;23.60;39.80;;;;;;5019583;28;20038;-45
2022/01/04 03:17:07;;;;;;;1.80;0.80;;;23.60;39.80;;;;;;5022851;28;20079;-46
2022/01/04 03:19:33;;;;;;;1.58;0.70;;;23.60;39.80;;;;;;5024927;28;20512;-46
2022/01/04 03:21:59;;;;;;;0.88;0.45;;;23.60;39.80;;;;;;5023852;28;20025;-46
2022/01/04 03:24:25;;;;;;;1.25;0.52;;;23.60;39.80;;;;;;5018309;28;20025;-45
2022/01/04 03:26:51;;;;;;;1.42;0.60;;;23.60;39.80;;;;;;5019259;28;20114;-46
2022/01/04 03:29:17;;;;;;;0.90;0.47;;;23.60;39.70;;;;;;5023386;28;20025;-47
2022/01/04 03:31:43;;;;;;;1.60;0.77;;;23.60;39.70;;;;;;5024597;28;20037;-45
2022/01/04 03:34:10;;;;;;;1.73;0.70;;;23.60;39.80;;;;;;5021020;28;20471;-46
2022/01/04 03:36:37;;;;;;;1.25;0.55;;;23.50;39.70;;;;;;5005213;28;20034;-45
2022/01/04 03:39:05;;;;;;;0.98;0.50;;;23.50;39.80;;;;;;5004576;28;20439;-46
2022/01/04 03:41:37;;;;;;;0.93;0.40;;;23.50;39.70;;;;;;5004634;28;20109;-46
2022/01/04 03:44:04;;;;;;;1.13;0.60;;;23.50;39.70;;;;;;5006811;28;20163;-46
2022/01/04 03:46:30;;;;;;;1.45;0.50;;;23.50;39.70;;;;;;5019206;28;20033;-45
2022/01/04 03:48:55;;;;;;;1.48;0.55;;;23.50;39.70;;;;;;5024275;28;20500;-47
2022/01/04 03:51:21;;;;;;;0.85;0.50;;;23.50;39.70;;;;;;5041235;28;20699;-48
2022/01/04 03:53:47;;;;;;;0.82;0.50;;;23.50;39.70;;;;;;5030778;28;20095;-48
2022/01/04 03:56:13;;;;;;;0.93;0.30;;;23.50;39.70;;;;;;5024282;28;20029;-47
2022/01/04 03:58:38;;;;;;;0.80;0.40;;;23.50;39.70;;;;;;5005553;28;20555;-49
2022/01/04 04:01:04;;;;;;;1.08;0.50;;;23.50;39.70;;;;;;5004321;28;20030;-48
2022/01/04 04:03:30;;;;;;;1.35;0.50;;;23.50;39.70;;;;;;5010140;28;20048;-50
2022/01/04 04:05:56;;;;;;;1.35;0.55;;;23.50;39.70;;;;;;5015654;28;20030;-48
2022/01/04 04:08:22;;;;;;;1.75;0.50;;;23.50;39.70;;;;;;5023414;28;20034;-48
2022/01/04 04:10:48;;;;;;;1.20;0.60;;;23.50;39.70;;;;;;5024233;28;20064;-48
2022/01/04 04:13:13;;;;;;;1.67;0.63;;;23.50;39.70;;;;;;5012344;28;20026;-48
2022/01/04 04:15:40;;;;;;;1.05;0.43;;;23.50;39.80;;;;;;5008397;28;20191;-47
2022/01/04 04:18:08;;;;;;;1.10;0.60;;;23.50;39.80;;;;;;5008291;28;20030;-47
2022/01/04 04:20:34;;;;;;;1.48;0.50;;;23.50;39.80;;;;;;5008497;28;20021;-47
2022/01/04 04:23:00;;;;;;;1.10;0.50;;;23.50;39.80;;;;;;5007834;28;20473;-47
2022/01/04 04:25:26;;;;;;;0.90;0.40;;;23.50;39.80;;;;;;5008493;28;20033;-47
2022/01/04 04:27:52;;;;;;;1.90;0.47;;;23.50;39.70;;;;;;5008342;28;20045;-48
2022/01/04 04:30:17;;;;;;;0.80;0.40;;;23.50;39.70;;;;;;5015308;28;20080;-48
2022/01/04 04:32:43;;;;;;;1.00;0.38;;;23.50;39.70;;;;;;5014250;28;20034;-47
2022/01/04 04:35:09;;;;;;;1.30;0.60;;;23.50;39.70;;;;;;5009996;28;20025;-47
2022/01/04 04:37:35;;;;;;;1.23;0.50;;;23.50;39.80;;;;;;5026223;28;20092;-48
2022/01/04 04:40:01;;;;;;;1.42;0.60;;;23.50;39.80;;;;;;5026277;28;20037;-48
2022/01/04 04:42:26;;;;;;;0.65;0.30;;;23.50;40.70;;;;;;5025133;28;20029;-47
2022/01/04 04:44:52;;;;;;;1.27;0.50;;;23.50;40.00;;;;;;5026650;28;20025;-47
2022/01/04 04:47:18;;;;;;;2.95;0.55;;;23.40;40.60;;;;;;5026213;28;20025;-47
2022/01/04 04:49:43;;;;;;;1.48;0.50;;;23.50;41.00;;;;;;5026983;28;20108;-47
2022/01/04 04:52:10;;;;;;;1.10;0.40;;;23.50;41.20;;;;;;5024052;28;20033;-48
2022/01/04 04:54:35;;;;;;;1.35;0.60;;;23.50;41.30;;;;;;5026082;28;20036;-47
2022/01/04 04:57:01;;;;;;;2.42;0.80;;;23.50;41.20;;;;;;5024984;28;20051;-49
2022/01/04 04:59:27;;;;;;;2.90;0.70;;;23.50;41.50;;;;;;5025925;28;20601;-48
2022/01/04 05:01:53;;;;;;;2.30;0.80;;;23.50;41.30;;;;;;5025554;28;20037;-47
2022/01/04 05:04:18;;;;;;;1.85;0.70;;;23.50;41.30;;;;;;5023826;28;20044;-48
2022/01/04 05:06:45;;;;;;;2.10;0.63;;;23.50;41.10;;;;;;5024272;28;20641;-48
2022/01/04 05:09:10;;;;;;;2.20;0.55;;;23.50;41.70;;;;;;5025817;28;20025;-48
2022/01/04 05:11:36;;;;;;;2.25;0.75;;;23.50;40.80;;;;;;5018336;28;20049;-47
2022/01/04 05:14:02;;;;;;;2.83;0.50;;;23.50;40.80;;;;;;5008542;28;20021;-49
2022/01/04 05:16:27;;;;;;;2.60;0.70;;;23.50;40.80;;;;;;5023967;28;20117;-49
2022/01/04 05:18:54;;;;;;;1.83;0.50;;;23.50;40.90;;;;;;5025529;28;20490;-48
2022/01/04 05:21:19;;;;;;;2.38;0.60;;;23.50;40.90;;;;;;5026643;28;20025;-47
2022/01/04 05:23:45;;;;;;;1.77;0.50;;;23.50;40.80;;;;;;5025626;28;20394;-48
2022/01/04 05:26:11;;;;;;;2.35;0.70;;;23.50;40.70;;;;;;5025160;28;20033;-47
2022/01/04 05:28:38;;;;;;;2.25;0.90;;;23.50;40.70;;;;;;5010430;28;20133;-48
2022/01/04 05:31:04;;;;;;;2.85;0.82;;;23.60;40.70;;;;;;5018178;28;20073;-49
2022/01/04 05:33:30;;;;;;;2.97;0.70;;;23.60;40.80;;;;;;5026556;28;20099;-47
2022/01/04 05:35:56;;;;;;;3.22;0.55;;;23.70;40.90;;;;;;5008407;28;20092;-48
2022/01/04 05:38:22;;;;;;;2.25;0.82;;;23.70;41.60;;;;;;5006612;28;20033;-47
2022/01/04 05:40:47;;;;;;;1.58;0.55;;;23.80;40.80;;;;;;5007320;28;20026;-48
2022/01/04 05:43:16;;;;;;;1.83;0.90;;;23.80;40.70;;;;;;5005867;28;20398;-49
2022/01/04 05:45:42;;;;;;;1.50;0.80;;;23.90;40.70;;;;;;5006891;28;20034;-48
2022/01/04 05:48:07;;;;;;;2.42;0.50;;;23.90;40.70;;;;;;5006390;28;20034;-47
2022/01/04 05:50:34;;;;;;;2.22;0.47;;;24.00;40.60;;;;;;5026851;28;20104;-49
2022/01/04 05:53:00;;;;;;;2.30;0.75;;;24.00;40.40;;;;;;5046687;28;20111;-48
2022/01/04 05:55:26;;;;;;;2.38;0.50;;;24.10;40.40;;;;;;5046262;28;20017;-47
2022/01/04 05:57:52;;;;;;;2.60;0.90;;;24.10;40.30;;;;;;5026242;28;20030;-47
2022/01/04 06:00:18;;;;;;;3.42;0.82;;;24.20;40.20;;;;;;5006381;28;20030;-48
2022/01/04 06:02:43;;;;;;;1.67;0.50;;;24.20;40.20;;;;;;5005533;28;20119;-49
2022/01/04 06:05:10;;;;;;;2.13;0.60;;;24.30;40.10;;;;;;5005332;28;20084;-47
2022/01/04 06:07:36;;;;;;;2.72;0.73;;;24.30;40.00;;;;;;5005594;28;20576;-49
2022/01/04 06:10:03;;;;;;;2.38;0.57;;;24.30;39.90;;;;;;5005359;28;20041;-48
2022/01/04 06:15:00;;;;;;;2.15;0.70;;;24.40;39.80;;;;;;5005187;28;20113;-48
2022/01/04 06:17:34;;;;;;;3.38;0.70;;;24.40;39.70;;;;;;5004867;28;20057;-48
2022/01/04 06:20:03;;;;;;;2.42;0.52;;;24.50;39.70;;;;;;5005050;28;20056;-48
2022/01/04 06:22:29;;;;;;;2.20;0.60;;;24.50;39.60;;;;;;5004366;28;20155;-47
2022/01/04 06:24:56;;;;;;;3.92;1.20;;;24.60;39.50;;;;;;5004252;28;20033;-48
2022/01/04 06:27:22;;;;;;;1.90;0.57;;;24.60;39.50;;;;;;5004052;28;20058;-48
2022/01/04 06:29:48;;;;;;;2.78;0.50;;;24.70;39.50;;;;;;5004272;28;20134;-48
2022/01/04 06:32:15;;;;;;;2.88;0.50;;;24.70;39.30;;;;;;5008040;28;20064;-47
2022/01/04 06:34:42;;;;;;;1.55;0.60;;;24.70;39.30;;;;;;5004722;28;20022;-47
2022/01/04 06:37:09;;;;;;;2.80;0.60;;;24.80;39.20;;;;;;5004962;28;20080;-47
2022/01/04 06:39:35;;;;;;;2.67;0.80;;;24.80;39.10;;;;;;5004925;28;20026;-48
2022/01/04 06:42:01;;;;;;;2.70;0.65;;;24.90;39.10;;;;;;5005022;28;20022;-48
2022/01/04 06:44:27;;;;;;;3.45;0.70;;;24.90;39.00;;;;;;5004738;28;20041;-49
2022/01/04 06:46:53;;;;;;;2.38;0.82;;;24.90;39.00;;;;;;5005298;28;20033;-47
2022/01/04 06:49:19;;;;;;;2.63;0.70;;;24.90;38.90;;;;;;5005307;28;20601;-48
2022/01/04 06:51:47;;;;;;;1.92;0.52;;;25.00;38.80;;;;;;5045070;28;20032;-48
2022/01/04 06:54:14;;;;;;;3.33;0.80;;;25.00;38.70;;;;;;5044993;28;20121;-48
2022/01/04 06:56:41;;;;;;;2.97;0.75;;;25.00;38.70;;;;;;5044606;28;20036;-47
2022/01/04 06:59:07;;;;;;;2.88;1.02;;;25.00;38.70;;;;;;5006014;28;20084;-47
2022/01/04 07:01:35;;;;;;;2.83;0.55;;;25.00;38.60;;;;;;5005238;28;20034;-46
2022/01/04 07:04:02;;;;;;;2.53;0.73;;;25.00;38.60;;;;;;5004882;28;20037;-48
2022/01/04 07:06:28;;;;;;;3.05;0.82;;;25.00;38.50;;;;;;5004866;28;20073;-47
2022/01/04 07:08:54;;;;;;;1.63;0.60;;;25.00;38.50;;;;;;5004846;28;20452;-49
2022/01/04 07:11:19;;;;;;;2.05;0.80;;;25.00;38.50;;;;;;5004276;28;20097;-49
2022/01/04 07:13:46;;;;;;;1.95;0.52;;;25.10;38.40;;;;;;5003764;28;20046;-47
2022/01/04 07:16:12;;;;;;;1.95;0.80;;;25.00;38.40;;;;;;5004474;28;20097;-48
2022/01/04 07:18:38;;;;;;;3.05;0.80;;;25.10;38.40;;;;;;5004503;28;20021;-47
2022/01/04 07:21:03;;;;;;;2.38;0.90;;;25.10;38.40;;;;;;5011538;28;20071;-46
2022/01/04 07:23:30;;;;;;;2.97;1.00;;;25.10;38.30;;;;;;5023782;28;20513;-49
2022/01/04 07:25:56;;;;;;;6.45;1.05;;;25.10;38.40;;;;;;5022590;28;20642;-47
2022/01/04 07:28:23;;;;;;;2.72;0.68;;;25.10;38.40;;;;;;5022275;28;20051;-51
2022/01/04 07:30:49;;;;;;;2.75;0.80;;;25.10;38.30;;;;;;5021233;28;20567;-48
2022/01/04 07:33:17;;;;;;;4.32;1.15;;;25.20;38.20;;;;;;5023228;28;20066;-49
2022/01/04 07:35:43;;;;;;;4.70;1.10;;;25.10;38.20;;;;;;5018744;28;20504;-48
2022/01/04 07:38:09;;;;;;;5.32;1.10;;;25.20;38.30;;;;;;5023252;28;20100;-48
2022/01/04 07:40:35;;;;;;;2.65;1.48;;;25.20;38.20;;;;;;5023483;28;20025;-48
2022/01/04 07:43:01;;;;;;;3.38;1.55;;;25.20;38.20;;;;;;5021827;28;20033;-48
2022/01/04 07:45:29;;;;;;;4.05;1.80;;;25.20;38.30;;;;;;5022364;28;20052;-47
2022/01/04 07:47:55;;;;;;;3.88;1.80;;;25.20;38.30;;;;;;5026591;28;20642;-48
2022/01/04 07:50:20;;;;;;;3.50;1.60;;;25.20;38.20;;;;;;5026055;28;20026;-47
2022/01/04 07:52:46;;;;;;;3.08;1.77;;;25.20;38.60;;;;;;5026844;28;20034;-48
2022/01/04 07:55:12;;;;;;;2.83;1.67;;;25.30;38.40;;;;;;5027824;28;20073;-47
2022/01/04 07:57:40;;;;;;;4.53;2.67;;;25.30;38.20;;;;;;5025703;28;20030;-47
2022/01/04 08:00:07;;;;;;;4.00;2.30;;;25.30;38.30;;;;;;5024722;28;20052;-49
2022/01/04 08:02:32;;;;;;;3.67;2.30;;;25.30;38.40;;;;;;5010645;28;20041;-47
2022/01/04 08:04:58;;;;;;;5.88;2.58;;;25.30;38.40;;;;;;5017350;28;20030;-48
2022/01/04 08:07:23;;;;;;;4.43;2.70;;;25.30;38.50;;;;;;5016630;28;20040;-48
2022/01/04 08:09:49;;;;;;;3.70;2.35;;;25.30;38.40;;;;;;5025867;28;20037;-50
2022/01/04 08:12:15;;;;;;;3.72;2.50;;;25.30;38.40;;;;;;5024238;28;20103;-48
2022/01/04 08:14:41;;;;;;;3.63;2.20;;;25.30;38.50;;;;;;5006692;28;20026;-48
2022/01/04 08:17:06;;;;;;;5.80;3.08;;;25.30;38.50;;;;;;5007259;28;20759;-49
2022/01/04 08:19:32;;;;;;;4.28;2.65;;;25.20;38.40;;;;;;5007534;28;20022;-49
2022/01/04 08:21:58;;;;;;;4.30;2.40;;;25.30;38.40;;;;;;5006921;28;20113;-48
2022/01/04 08:24:24;;;;;;;4.55;2.88;;;25.30;38.40;;;;;;5006910;28;20053;-48
2022/01/04 08:26:49;;;;;;;3.97;2.63;;;25.30;38.40;;;;;;5014977;28;20044;-48
2022/01/04 08:29:15;;;;;;;4.15;2.70;;;25.30;38.40;;;;;;5007601;28;20034;-47
2022/01/04 08:31:41;;;;;;;3.55;2.17;;;25.20;38.40;;;;;;5007232;28;20148;-48
2022/01/04 08:34:06;;;;;;;4.93;2.88;;;25.20;38.40;;;;;;5006744;28;20065;-47
2022/01/04 08:36:32;;;;;;;5.03;2.80;;;25.20;38.40;;;;;;5006713;28;20036;-49
2022/01/04 08:38:59;;;;;;;4.10;2.63;;;25.20;38.30;;;;;;5007154;28;20060;-47
2022/01/04 08:41:25;;;;;;;4.00;2.67;;;25.20;38.30;;;;;;5007539;28;20615;-47
2022/01/04 08:43:50;;;;;;;4.07;2.60;;;25.20;38.30;;;;;;5007278;28;20590;-48
2022/01/04 08:46:16;;;;;;;4.25;2.78;;;25.20;38.30;;;;;;5007431;28;20062;-49
2022/01/04 08:48:42;;;;;;;4.00;2.72;;;25.20;38.30;;;;;;5005935;28;20045;-48
2022/01/04 08:51:07;;;;;;;5.00;3.35;;;25.10;38.30;;;;;;5015001;28;20209;-48
2022/01/04 08:53:33;;;;;;;3.65;2.45;;;25.10;38.30;;;;;;5007415;28;20195;-49
2022/01/04 08:56:01;;;;;;;5.05;3.10;;;25.10;38.30;;;;;;5015307;28;20038;-48
2022/01/04 08:58:28;;;;;;;4.85;3.15;;;25.10;38.30;;;;;;5015211;28;20119;-47
2022/01/04 09:00:55;;;;;;;4.88;3.17;;;25.10;38.30;;;;;;5007041;28;20038;-48
2022/01/04 09:03:21;;;;;;;4.20;2.75;;;25.10;38.40;;;;;;5006596;28;20674;-48
2022/01/04 09:05:47;;;;;;;8.52;3.70;;;25.10;38.30;;;;;;5006441;28;20074;-48
2022/01/04 09:08:14;;;;;;;5.15;3.45;;;25.10;38.30;;;;;;5006951;28;20050;-47
2022/01/04 09:10:39;;;;;;;4.60;3.17;;;25.00;38.30;;;;;;5006577;28;20030;-48
2022/01/04 09:13:15;;;;;;;4.43;3.00;;;25.00;38.30;;;;;;5006673;28;20089;-49
2022/01/04 09:18:46;;;;;;;4.35;3.22;;;25.00;38.90;;;;;;5006805;28;20029;-48
2022/01/04 09:21:24;;;;;;;3.85;2.80;;;25.00;38.30;;;;;;5006747;28;20038;-49
2022/01/04 09:23:50;;;;;;;4.72;3.33;;;25.00;38.30;;;;;;5006283;28;20072;-48
2022/01/04 09:26:17;;;;;;;4.60;3.25;;;25.00;38.30;;;;;;5006763;28;20525;-46
2022/01/04 09:28:44;;;;;;;5.18;3.67;;;25.00;38.30;;;;;;5006114;28;20104;-47
2022/01/04 09:31:11;;;;;;;4.30;3.05;;;24.90;38.40;;;;;;5005310;28;20466;-50
2022/01/04 09:33:38;;;;;;;4.70;3.60;;;24.90;38.40;;;;;;5005744;28;20399;-48
2022/01/04 09:36:05;;;;;;;4.95;3.58;;;24.90;38.40;;;;;;5006120;28;20697;-48
2022/01/04 09:38:31;;;;;;;5.30;3.97;;;24.90;38.40;;;;;;5005609;28;20087;-48
2022/01/04 09:40:57;;;;;;;5.05;3.45;;;24.90;38.40;;;;;;5006504;28;20026;-47
2022/01/04 09:43:24;;;;;;;5.32;4.13;;;24.80;38.40;;;;;;5005348;28;20041;-49
2022/01/04 09:45:50;;;;;;;6.30;3.97;;;24.80;38.40;;;;;;5006646;28;20105;-48
2022/01/04 09:48:15;;;;;;;4.70;3.72;;;24.80;38.50;;;;;;5005781;28;20109;-47
2022/01/04 09:50:42;;;;;;;4.47;3.67;;;24.80;38.50;;;;;;5027851;28;20086;-47
2022/01/04 09:53:17;;;;;;;4.55;3.33;;;24.80;38.50;;;;;;5037600;28;20025;-48
2022/01/04 09:55:43;;;;;;;5.65;3.80;;;24.80;38.50;;;;;;5009023;28;20168;-48
2022/01/04 09:58:10;;;;;;;5.35;3.80;;;24.70;38.50;;;;;;5005591;28;20101;-47
2022/01/04 10:00:36;;;;;;;5.95;4.10;;;24.70;38.50;;;;;;5022400;28;20033;-47
2022/01/04 10:03:16;;;;;;;6.68;3.85;;;24.70;38.60;;;;;;5025530;28;20025;-48
2022/01/04 10:05:43;;;;;;;4.72;3.47;;;24.70;38.60;;;;;;5009854;28;20077;-47
2022/01/04 10:08:11;;;;;;;4.90;3.80;;;24.70;38.60;;;;;;5005668;28;20026;-48
2022/01/04 10:10:41;;;;;;;6.07;4.10;;;24.60;38.50;;;;;;5004857;28;20112;-47
2022/01/04 10:13:11;;;;;;;5.80;4.13;;;24.70;38.60;;;;;;5014554;28;20040;-47
2022/01/04 10:15:44;;;;;;;4.55;3.58;;;24.70;38.70;;;;;;5005373;28;20026;-47
2022/01/04 10:18:12;;;;;;;5.55;4.13;;;24.60;38.60;;;;;;5004851;28;20033;-47
2022/01/04 10:20:43;;;;;;;5.30;4.00;;;24.60;38.60;;;;;;5003732;28;20022;-47
2022/01/04 10:23:14;;;;;;;4.90;3.78;;;24.60;38.60;;;;;;5004903;28;20045;-48
2022/01/04 10:25:40;;;;;;;5.38;3.80;;;24.60;38.70;;;;;;5005534;28;20037;-47
2022/01/04 10:28:07;;;;;;;4.55;3.65;;;24.60;38.70;;;;;;5005128;28;20102;-48
2022/01/04 10:30:34;;;;;;;5.15;3.85;;;24.60;38.70;;;;;;5005559;28;20087;-47
2022/01/04 10:33:14;;;;;;;4.38;3.55;;;24.50;38.70;;;;;;5017327;28;20026;-48
2022/01/04 10:35:48;;;;;;;5.07;4.00;;;24.50;38.70;;;;;;5009499;28;20113;-47
2022/01/04 10:38:22;;;;;;;4.20;3.30;;;24.50;38.70;;;;;;5005091;28;20062;-49
2022/01/04 10:40:59;;;;;;;4.88;3.83;;;24.50;38.70;;;;;;5005299;28;20025;-47
2022/01/04 10:43:28;;;;;;;6.15;4.20;;;24.50;38.80;;;;;;5004624;28;20030;-49
2022/01/04 10:45:54;;;;;;;5.28;3.95;;;24.40;38.70;;;;;;5004418;28;20033;-46
2022/01/04 10:48:26;;;;;;;4.40;3.78;;;24.40;38.70;;;;;;5012702;28;20051;-47
2022/01/04 10:51:05;;;;;;;5.43;3.50;;;24.40;38.80;;;;;;5037350;28;20028;-48
2022/01/04 10:53:41;;;;;;;5.32;4.43;;;24.40;38.80;;;;;;5044511;28;20074;-48
2022/01/04 10:56:10;;;;;;;4.72;3.90;;;24.40;38.80;;;;;;5034885;28;20033;-48
2022/01/04 10:58:40;;;;;;;5.07;3.83;;;24.40;38.80;;;;;;5012991;28;20518;-48
2022/01/04 11:01:15;;;;;;;5.30;3.97;;;24.40;38.80;;;;;;5004749;28;20069;-47
2022/01/04 11:04:01;;;;;;;5.97;4.20;;;24.40;38.90;;;;;;5003775;28;20030;-48
2022/01/04 11:06:29;;;;;;;5.57;4.22;;;24.30;38.90;;;;;;5004583;28;20108;-47
2022/01/04 11:08:56;;;;;;;5.30;3.80;;;24.40;38.90;;;;;;5004807;28;20018;-47
2022/01/04 11:11:22;;;;;;;4.72;4.07;;;24.30;39.00;;;;;;5004853;28;20029;-46
2022/01/04 11:13:51;;;;;;;5.55;4.38;;;24.30;39.00;;;;;;5002692;28;20045;-48
2022/01/04 11:16:19;;;;;;;4.90;4.00;;;24.30;39.00;;;;;;5004886;28;20096;-49
2022/01/04 11:18:50;;;;;;;5.07;4.30;;;24.30;39.10;;;;;;5004109;28;20100;-48
2022/01/04 11:21:28;;;;;;;5.78;4.80;;;24.30;39.10;;;;;;5019633;28;20014;-48
2022/01/04 11:23:57;;;;;;;5.13;4.07;;;24.30;39.20;;;;;;5002797;28;20783;-48
2022/01/04 11:26:24;;;;;;;5.18;4.20;;;24.30;39.10;;;;;;5004648;28;20748;-49
2022/01/04 11:28:52;;;;;;;5.72;4.38;;;24.30;39.10;;;;;;5003998;28;20041;-48
2022/01/04 11:31:48;;;;;;;4.93;4.18;;;24.30;39.10;;;;;;5004769;28;20025;-49
2022/01/04 11:34:32;;;;;;;4.90;4.07;;;24.30;39.10;;;;;;5002671;28;20034;-47
2022/01/04 11:36:57;;;;;;;5.18;3.70;;;24.30;39.20;;;;;;5004343;28;20108;-47
2022/01/04 11:39:38;;;;;;;5.43;4.05;;;24.30;39.10;;;;;;5003794;28;20105;-48
2022/01/04 11:42:09;;;;;;;5.32;4.05;;;24.30;39.20;;;;;;5004586;28;20030;-49
2022/01/04 11:44:46;;;;;;;5.55;4.32;;;24.30;39.10;;;;;;5003862;28;20073;-49
2022/01/04 11:47:23;;;;;;;5.28;4.20;;;24.30;39.10;;;;;;5004146;28;20049;-48
2022/01/04 11:50:24;;;;;;;4.70;3.63;;;24.30;39.10;;;;;;5012237;28;20067;-48
2022/01/04 11:52:52;;;;;;;5.57;4.22;;;24.30;39.10;;;;;;5043382;28;20033;-46
2022/01/04 11:55:24;;;;;;;5.68;3.80;;;24.30;39.10;;;;;;5042314;28;20039;-49
2022/01/04 11:57:51;;;;;;;4.85;4.18;;;24.30;39.10;;;;;;5024141;28;20021;-47
2022/01/04 12:00:55;;;;;;;4.90;4.05;;;24.30;39.10;;;;;;5023525;28;20029;-47
2022/01/04 12:03:45;;;;;;;4.57;3.78;;;24.30;39.10;;;;;;5019503;28;20033;-46
2022/01/04 12:06:12;;;;;;;5.15;4.15;;;24.30;39.10;;;;;;5021620;28;20053;-47
2022/01/04 12:08:50;;;;;;;5.00;3.83;;;24.30;39.10;;;;;;5023522;28;20113;-48
2022/01/04 12:11:39;;;;;;;4.95;4.00;;;24.30;39.20;;;;;;5023999;28;20022;-48
2022/01/04 12:14:24;;;;;;;4.63;4.00;;;24.30;39.10;;;;;;5006195;28;20701;-48
2022/01/04 12:17:07;;;;;;;4.57;3.72;;;24.30;39.10;;;;;;5004158;28;20030;-47
2022/01/04 12:19:50;;;;;;;4.68;3.53;;;24.30;39.10;;;;;;5003998;28;20026;-49
2022/01/04 12:22:32;;;;;;;5.00;4.00;;;24.30;39.10;;;;;;5004421;28;20403;-48
2022/01/04 12:25:05;;;;;;;5.07;3.63;;;24.30;39.10;;;;;;5004380;28;20717;-47
2022/01/04 12:27:31;;;;;;;5.65;3.97;;;24.30;39.10;;;;;;5004288;28;20275;-47
2022/01/04 12:30:24;;;;;;;5.30;4.22;;;24.30;39.10;;;;;;5002624;28;20116;-48
2022/01/04 12:32:50;;;;;;;4.60;3.92;;;24.30;39.10;;;;;;5004666;28;20088;-48
2022/01/04 12:35:16;;;;;;;5.70;4.45;;;24.20;39.00;;;;;;5007139;28;20034;-47
2022/01/04 12:37:42;;;;;;;5.35;4.40;;;24.20;39.00;;;;;;5007554;28;20068;-48
2022/01/04 12:40:08;;;;;;;4.80;3.97;;;24.20;39.00;;;;;;5007542;28;20105;-47
2022/01/04 12:42:34;;;;;;;5.75;4.60;;;24.20;39.00;;;;;;5006983;28;20033;-49
2022/01/04 12:45:01;;;;;;;5.07;4.07;;;24.20;39.10;;;;;;5007561;28;20033;-47
2022/01/04 12:47:27;;;;;;;5.00;4.10;;;24.20;39.00;;;;;;5007249;28;20124;-48
2022/01/04 12:49:56;;;;;;;5.45;4.15;;;24.20;39.10;;;;;;5016311;28;20104;-48
2022/01/04 12:52:22;;;;;;;5.53;4.22;;;24.20;39.10;;;;;;5046402;28;20025;-48
2022/01/04 12:54:48;;;;;;;5.93;4.50;;;24.20;39.20;;;;;;5042804;28;20040;-48
2022/01/04 12:57:16;;;;;;;5.53;4.32;;;24.20;39.10;;;;;;5027163;28;20029;-47
2022/01/04 12:59:55;;;;;;;5.47;4.40;;;24.20;39.20;;;;;;5009314;28;20022;-47
2022/01/04 13:02:31;;;;;;;5.68;4.35;;;24.20;39.10;;;;;;5026986;28;20029;-48